Citta Di Savona — IMDS — position and weather

sailwx.info

Track history (hours):
 
Tides and Currents Weather Stations Pressure Air Temp Water Temp Dewpoint Dewpoint Depression Visibility Wind Speed Wind Dir Waves Ship Positions

Citta Di Savona

Last reported at 2015-Mar-03 18:33 UTC. Time now 2015-Mar-03 22:40 UTC.
Position N 44°18' E 008°29'.

Length 31 m; draft 4.2 m.

Type: Tug. MMSI: 247402000.

Date/timePositionNaut miles runAvg speedWind from/ knotsBaromVisibWave heightAir tempDewpointWater temp
2015-Mar-03 18:33N 44°18' E 008°29'0 0.0
2015-Mar-03 17:33N 44°18' E 008°29'0 0.0
2015-Mar-03 16:33N 44°18' E 008°29'0 0.0
2015-Mar-03 15:33N 44°18' E 008°29'0 0.0
2015-Mar-03 14:33N 44°18' E 008°29'0 0.0
2015-Mar-03 13:21N 44°18' E 008°29'0 0.0
2015-Mar-03 12:33N 44°18' E 008°29'0 0.0
2015-Mar-03 11:33N 44°18' E 008°29'2 2.0
2015-Mar-03 10:34N 44°17' E 008°28'0 0.1
2015-Mar-03 09:33N 44°17' E 008°28'1 0.6
2015-Mar-03 08:33N 44°16' E 008°28'3 2.7
2015-Mar-03 07:33N 44°19' E 008°29'0 0.2
2015-Mar-03 06:33N 44°19' E 008°30'0 0.4
2015-Mar-03 05:33N 44°19' E 008°30'1 0.7
2015-Mar-03 04:33N 44°18' E 008°29'0 0.0
2015-Mar-02 12:33N 44°18' E 008°29'0 0.0
2015-Mar-02 11:33N 44°18' E 008°29'0 0.0
2015-Mar-02 10:17N 44°18' E 008°29'0 0.0
2015-Mar-02 08:17N 44°18' E 008°29'0 0.0
2015-Mar-02 07:28N 44°18' E 008°29'0 0.0
2015-Mar-02 06:26N 44°18' E 008°29'0 0.0
2015-Mar-02 05:17N 44°18' E 008°29'0 0.0
2015-Mar-01 13:17N 44°18' E 008°29'0 0.0
2015-Mar-01 12:21N 44°18' E 008°29'0 0.0
2015-Mar-01 11:21N 44°18' E 008°29'0 0.0
2015-Mar-01 10:17N 44°18' E 008°29'0 0.0
2015-Mar-01 09:21N 44°18' E 008°29'0 0.0
2015-Mar-01 08:16N 44°18' E 008°29'0 0.0
2015-Mar-01 07:33N 44°18' E 008°29'0 0.0
2015-Mar-01 06:32N 44°18' E 008°29'0 0.0
2015-Mar-01 05:18N 44°18' E 008°29'0 0.0
2015-Feb-28 12:33N 44°18' E 008°29'0 0.0
2015-Feb-28 11:34N 44°18' E 008°29'0 0.0
2015-Feb-28 10:33N 44°18' E 008°29'0 0.0
2015-Feb-28 09:33N 44°18' E 008°29'0 0.0
2015-Feb-28 08:33N 44°18' E 008°29'0 0.0
2015-Feb-28 07:34N 44°18' E 008°29'0 0.0
2015-Feb-28 06:34N 44°18' E 008°29'0 0.0
2015-Feb-28 05:33N 44°18' E 008°29'0 0.0
2015-Feb-28 04:33N 44°18' E 008°29'0 0.0
2015-Feb-28 03:33N 44°18' E 008°29'0 0.0
2015-Feb-28 02:33N 44°18' E 008°29'0 0.0
2015-Feb-28 01:33N 44°18' E 008°29'0 0.0
2015-Feb-28 00:33N 44°18' E 008°29'0 0.0
2015-Feb-27 23:33N 44°18' E 008°29'0 0.0
2015-Feb-27 15:12N 44°18' E 008°29'0 0.0
2015-Feb-27 14:34N 44°18' E 008°29'0 0.0
2015-Feb-27 13:34N 44°18' E 008°29'0 0.0
2015-Feb-27 12:34N 44°18' E 008°29'0 0.0
2015-Feb-27 11:34N 44°18' E 008°29'0 0.0
2015-Feb-27 10:34N 44°18' E 008°29'0 0.0
2015-Feb-27 09:34N 44°18' E 008°29'0 0.0
2015-Feb-27 08:34N 44°18' E 008°29'0 0.0
2015-Feb-27 07:34N 44°18' E 008°29'0 0.0
2015-Feb-27 06:34N 44°18' E 008°29'0 0.0
2015-Feb-27 05:34N 44°18' E 008°29'0 0.0
2015-Feb-27 04:34N 44°18' E 008°29'0 0.4
2015-Feb-27 03:34N 44°19' E 008°30'3 2.7
2015-Feb-27 02:33N 44°16' E 008°28'2 2.3
2015-Feb-27 01:34N 44°19' E 008°29'0 0.0
2015-Feb-27 00:33N 44°18' E 008°29'0 0.0
2015-Feb-26 15:33N 44°18' E 008°29'1 1.0
2015-Feb-26 14:33N 44°19' E 008°31'1 0.8
2015-Feb-26 13:18N 44°18' E 008°29'0 0.0
2015-Feb-26 09:22N 44°18' E 008°29'1 1.7
2015-Feb-26 08:33N 44°17' E 008°29'1 1.0
2015-Feb-26 07:33N 44°16' E 008°28'2 2.4
2015-Feb-26 06:33N 44°18' E 008°29'0 0.0
2015-Feb-26 05:33N 44°18' E 008°29'0 0.0
2015-Feb-26 04:33N 44°18' E 008°29'0 0.0
2015-Feb-26 03:34N 44°18' E 008°29'0 0.0
2015-Feb-26 02:33N 44°18' E 008°29'0 0.0
2015-Feb-26 01:33N 44°18' E 008°29'0 0.4
2015-Feb-26 00:34N 44°19' E 008°30'0 0.4
2015-Feb-25 23:33N 44°18' E 008°29'0 0.0
2015-Feb-25 22:33N 44°18' E 008°29'0 0.0
2015-Feb-25 21:33N 44°18' E 008°29'0 0.0
2015-Feb-25 20:33N 44°18' E 008°29'0 0.0
2015-Feb-25 19:33N 44°18' E 008°29'0 0.0
2015-Feb-25 18:33N 44°18' E 008°29'0 0.0
2015-Feb-25 17:33N 44°18' E 008°29'0 0.0
2015-Feb-25 16:33N 44°18' E 008°29'0 0.0
2015-Feb-25 15:33N 44°18' E 008°29'0 0.0
2015-Feb-25 14:33N 44°18' E 008°29'0 0.0
2015-Feb-25 13:33N 44°18' E 008°29'0 0.0
2015-Feb-25 12:33N 44°18' E 008°29'0 0.0
2015-Feb-25 11:33N 44°18' E 008°29'0 0.0
2015-Feb-25 10:33N 44°18' E 008°29'0 0.0
2015-Feb-25 09:33N 44°18' E 008°29'0 0.0
2015-Feb-25 08:33N 44°18' E 008°29'0 0.0
2015-Feb-25 07:33N 44°18' E 008°29'0 0.0
2015-Feb-25 06:33N 44°18' E 008°29'0 0.0
2015-Feb-25 05:33N 44°18' E 008°29'0 0.0
2015-Feb-25 04:33N 44°18' E 008°29'0 0.0
2015-Feb-25 03:33N 44°18' E 008°29'0 0.0
2015-Feb-24 22:33N 44°18' E 008°29'0 0.0
2015-Feb-24 21:33N 44°18' E 008°29'0 0.0
2015-Feb-24 20:33N 44°18' E 008°29'0 0.0
2015-Feb-24 19:33N 44°18' E 008°29'0 0.0
2015-Feb-24 18:34N 44°18' E 008°29'0 0.0
2015-Feb-24 17:33N 44°18' E 008°29'0 0.0
2015-Feb-24 16:33N 44°18' E 008°29'0 0.0
2015-Feb-24 15:33N 44°18' E 008°29'0 0.0
2015-Feb-24 14:33N 44°18' E 008°29'0 0.0
2015-Feb-24 13:33N 44°18' E 008°29'0 0.0
2015-Feb-24 12:33N 44°18' E 008°29'0 0.0
2015-Feb-24 11:33N 44°18' E 008°29'0 0.0
2015-Feb-24 10:33N 44°18' E 008°29'0 0.0
2015-Feb-24 09:33N 44°18' E 008°29'0 0.0
2015-Feb-24 08:33N 44°18' E 008°29'0 0.0
2015-Feb-24 07:33N 44°18' E 008°29'0 0.0
2015-Feb-24 06:33N 44°18' E 008°29'0 0.0
2015-Feb-24 05:33N 44°18' E 008°29'0 0.0
2015-Feb-24 00:33N 44°18' E 008°29'0 0.0
2015-Feb-23 23:34N 44°18' E 008°29'0 0.0
2015-Feb-23 22:33N 44°18' E 008°29'0 0.0
2015-Feb-23 21:34N 44°18' E 008°29'0 0.0
2015-Feb-23 20:34N 44°18' E 008°29'0 0.0
2015-Feb-23 19:33N 44°18' E 008°29'0 0.0
2015-Feb-23 18:34N 44°18' E 008°29'0 0.0
2015-Feb-23 17:34N 44°18' E 008°29'0 0.0
2015-Feb-23 16:33N 44°18' E 008°29'0 0.0
2015-Feb-23 15:34N 44°18' E 008°29'0 0.0
2015-Feb-23 14:34N 44°18' E 008°29'0 0.0
2015-Feb-23 13:34N 44°18' E 008°29'0 0.0
2015-Feb-22 19:34N 44°18' E 008°29'0 0.0
2015-Feb-22 18:33N 44°18' E 008°29'0 0.0
2015-Feb-22 17:33N 44°18' E 008°29'0 0.0
2015-Feb-22 16:34N 44°18' E 008°29'0 0.0
2015-Feb-22 15:34N 44°18' E 008°29'0 0.0
2015-Feb-22 14:34N 44°18' E 008°29'0 0.0
2015-Feb-22 13:34N 44°18' E 008°29'0 0.0
2015-Feb-22 12:34N 44°18' E 008°29'1 0.8
2015-Feb-22 11:33N 44°18' E 008°30'1 0.8
2015-Feb-22 10:33N 44°18' E 008°29'1 0.3
2015-Feb-22 08:33N 44°19' E 008°30'3 2.9
2015-Feb-22 07:33N 44°16' E 008°28'3 3.4
2015-Feb-22 06:33N 44°19' E 008°30'1 0.9
2015-Feb-22 05:33N 44°18' E 008°29'0 0.0
2015-Feb-22 04:33N 44°18' E 008°29'0 0.0
2015-Feb-22 03:33N 44°18' E 008°29'0 0.0
2015-Feb-22 02:33N 44°18' E 008°29'  
Track history (hours):
 
Tides and Currents Weather Stations Pressure Air Temp Water Temp Dewpoint Dewpoint Depression Visibility Wind Speed Wind Dir Waves Ship Positions

Citta Di Savona

Last reported at 2015-Mar-03 18:33 UTC. Time now 2015-Mar-03 22:40 UTC.
Position N 44°18' E 008°29'.

Length 31 m; draft 4.2 m.

Type: Tug. MMSI: 247402000.

Date/timePositionNaut miles runAvg speedWind from/ knotsBaromVisibWave heightAir tempDewpointWater temp
2015-Mar-03 18:33N 44°18' E 008°29'0 0.0
2015-Mar-03 17:33N 44°18' E 008°29'0 0.0
2015-Mar-03 16:33N 44°18' E 008°29'0 0.0
2015-Mar-03 15:33N 44°18' E 008°29'0 0.0
2015-Mar-03 14:33N 44°18' E 008°29'0 0.0
2015-Mar-03 13:21N 44°18' E 008°29'0 0.0
2015-Mar-03 12:33N 44°18' E 008°29'0 0.0
2015-Mar-03 11:33N 44°18' E 008°29'2 2.0
2015-Mar-03 10:34N 44°17' E 008°28'0 0.1
2015-Mar-03 09:33N 44°17' E 008°28'1 0.6
2015-Mar-03 08:33N 44°16' E 008°28'3 2.7
2015-Mar-03 07:33N 44°19' E 008°29'0 0.2
2015-Mar-03 06:33N 44°19' E 008°30'0 0.4
2015-Mar-03 05:33N 44°19' E 008°30'1 0.7
2015-Mar-03 04:33N 44°18' E 008°29'0 0.0
2015-Mar-02 12:33N 44°18' E 008°29'0 0.0
2015-Mar-02 11:33N 44°18' E 008°29'0 0.0
2015-Mar-02 10:17N 44°18' E 008°29'0 0.0
2015-Mar-02 08:17N 44°18' E 008°29'0 0.0
2015-Mar-02 07:28N 44°18' E 008°29'0 0.0
2015-Mar-02 06:26N 44°18' E 008°29'0 0.0
2015-Mar-02 05:17N 44°18' E 008°29'0 0.0
2015-Mar-01 13:17N 44°18' E 008°29'0 0.0
2015-Mar-01 12:21N 44°18' E 008°29'0 0.0
2015-Mar-01 11:21N 44°18' E 008°29'0 0.0
2015-Mar-01 10:17N 44°18' E 008°29'0 0.0
2015-Mar-01 09:21N 44°18' E 008°29'0 0.0
2015-Mar-01 08:16N 44°18' E 008°29'0 0.0
2015-Mar-01 07:33N 44°18' E 008°29'0 0.0
2015-Mar-01 06:32N 44°18' E 008°29'0 0.0
2015-Mar-01 05:18N 44°18' E 008°29'0 0.0
2015-Feb-28 12:33N 44°18' E 008°29'0 0.0
2015-Feb-28 11:34N 44°18' E 008°29'0 0.0
2015-Feb-28 10:33N 44°18' E 008°29'0 0.0
2015-Feb-28 09:33N 44°18' E 008°29'0 0.0
2015-Feb-28 08:33N 44°18' E 008°29'0 0.0
2015-Feb-28 07:34N 44°18' E 008°29'0 0.0
2015-Feb-28 06:34N 44°18' E 008°29'0 0.0
2015-Feb-28 05:33N 44°18' E 008°29'0 0.0
2015-Feb-28 04:33N 44°18' E 008°29'0 0.0
2015-Feb-28 03:33N 44°18' E 008°29'0 0.0
2015-Feb-28 02:33N 44°18' E 008°29'0 0.0
2015-Feb-28 01:33N 44°18' E 008°29'0 0.0
2015-Feb-28 00:33N 44°18' E 008°29'0 0.0
2015-Feb-27 23:33N 44°18' E 008°29'0 0.0
2015-Feb-27 15:12N 44°18' E 008°29'0 0.0
2015-Feb-27 14:34N 44°18' E 008°29'0 0.0
2015-Feb-27 13:34N 44°18' E 008°29'0 0.0
2015-Feb-27 12:34N 44°18' E 008°29'0 0.0
2015-Feb-27 11:34N 44°18' E 008°29'0 0.0
2015-Feb-27 10:34N 44°18' E 008°29'0 0.0
2015-Feb-27 09:34N 44°18' E 008°29'0 0.0
2015-Feb-27 08:34N 44°18' E 008°29'0 0.0
2015-Feb-27 07:34N 44°18' E 008°29'0 0.0
2015-Feb-27 06:34N 44°18' E 008°29'0 0.0
2015-Feb-27 05:34N 44°18' E 008°29'0 0.0
2015-Feb-27 04:34N 44°18' E 008°29'0 0.4
2015-Feb-27 03:34N 44°19' E 008°30'3 2.7
2015-Feb-27 02:33N 44°16' E 008°28'2 2.3
2015-Feb-27 01:34N 44°19' E 008°29'0 0.0
2015-Feb-27 00:33N 44°18' E 008°29'0 0.0
2015-Feb-26 15:33N 44°18' E 008°29'1 1.0
2015-Feb-26 14:33N 44°19' E 008°31'1 0.8
2015-Feb-26 13:18N 44°18' E 008°29'0 0.0
2015-Feb-26 09:22N 44°18' E 008°29'1 1.7
2015-Feb-26 08:33N 44°17' E 008°29'1 1.0
2015-Feb-26 07:33N 44°16' E 008°28'2 2.4
2015-Feb-26 06:33N 44°18' E 008°29'0 0.0
2015-Feb-26 05:33N 44°18' E 008°29'0 0.0
2015-Feb-26 04:33N 44°18' E 008°29'0 0.0
2015-Feb-26 03:34N 44°18' E 008°29'0 0.0
2015-Feb-26 02:33N 44°18' E 008°29'0 0.0
2015-Feb-26 01:33N 44°18' E 008°29'0 0.4
2015-Feb-26 00:34N 44°19' E 008°30'0 0.4
2015-Feb-25 23:33N 44°18' E 008°29'0 0.0
2015-Feb-25 22:33N 44°18' E 008°29'0 0.0
2015-Feb-25 21:33N 44°18' E 008°29'0 0.0
2015-Feb-25 20:33N 44°18' E 008°29'0 0.0
2015-Feb-25 19:33N 44°18' E 008°29'0 0.0
2015-Feb-25 18:33N 44°18' E 008°29'0 0.0
2015-Feb-25 17:33N 44°18' E 008°29'0 0.0
2015-Feb-25 16:33N 44°18' E 008°29'0 0.0
2015-Feb-25 15:33N 44°18' E 008°29'0 0.0
2015-Feb-25 14:33N 44°18' E 008°29'0 0.0
2015-Feb-25 13:33N 44°18' E 008°29'0 0.0
2015-Feb-25 12:33N 44°18' E 008°29'0 0.0
2015-Feb-25 11:33N 44°18' E 008°29'0 0.0
2015-Feb-25 10:33N 44°18' E 008°29'0 0.0
2015-Feb-25 09:33N 44°18' E 008°29'0 0.0
2015-Feb-25 08:33N 44°18' E 008°29'0 0.0
2015-Feb-25 07:33N 44°18' E 008°29'0 0.0
2015-Feb-25 06:33N 44°18' E 008°29'0 0.0
2015-Feb-25 05:33N 44°18' E 008°29'0 0.0
2015-Feb-25 04:33N 44°18' E 008°29'0 0.0
2015-Feb-25 03:33N 44°18' E 008°29'0 0.0
2015-Feb-24 22:33N 44°18' E 008°29'0 0.0
2015-Feb-24 21:33N 44°18' E 008°29'0 0.0
2015-Feb-24 20:33N 44°18' E 008°29'0 0.0
2015-Feb-24 19:33N 44°18' E 008°29'0 0.0
2015-Feb-24 18:34N 44°18' E 008°29'0 0.0
2015-Feb-24 17:33N 44°18' E 008°29'0 0.0
2015-Feb-24 16:33N 44°18' E 008°29'0 0.0
2015-Feb-24 15:33N 44°18' E 008°29'0 0.0
2015-Feb-24 14:33N 44°18' E 008°29'0 0.0
2015-Feb-24 13:33N 44°18' E 008°29'0 0.0
2015-Feb-24 12:33N 44°18' E 008°29'0 0.0
2015-Feb-24 11:33N 44°18' E 008°29'0 0.0
2015-Feb-24 10:33N 44°18' E 008°29'0 0.0
2015-Feb-24 09:33N 44°18' E 008°29'0 0.0
2015-Feb-24 08:33N 44°18' E 008°29'0 0.0
2015-Feb-24 07:33N 44°18' E 008°29'0 0.0
2015-Feb-24 06:33N 44°18' E 008°29'0 0.0
2015-Feb-24 05:33N 44°18' E 008°29'0 0.0
2015-Feb-24 00:33N 44°18' E 008°29'0 0.0
2015-Feb-23 23:34N 44°18' E 008°29'0 0.0
2015-Feb-23 22:33N 44°18' E 008°29'0 0.0
2015-Feb-23 21:34N 44°18' E 008°29'0 0.0
2015-Feb-23 20:34N 44°18' E 008°29'0 0.0
2015-Feb-23 19:33N 44°18' E 008°29'0 0.0
2015-Feb-23 18:34N 44°18' E 008°29'0 0.0
2015-Feb-23 17:34N 44°18' E 008°29'0 0.0
2015-Feb-23 16:33N 44°18' E 008°29'0 0.0
2015-Feb-23 15:34N 44°18' E 008°29'0 0.0
2015-Feb-23 14:34N 44°18' E 008°29'0 0.0
2015-Feb-23 13:34N 44°18' E 008°29'0 0.0
2015-Feb-22 19:34N 44°18' E 008°29'0 0.0
2015-Feb-22 18:33N 44°18' E 008°29'0 0.0
2015-Feb-22 17:33N 44°18' E 008°29'0 0.0
2015-Feb-22 16:34N 44°18' E 008°29'0 0.0
2015-Feb-22 15:34N 44°18' E 008°29'0 0.0
2015-Feb-22 14:34N 44°18' E 008°29'0 0.0
2015-Feb-22 13:34N 44°18' E 008°29'0 0.0
2015-Feb-22 12:34N 44°18' E 008°29'1 0.8
2015-Feb-22 11:33N 44°18' E 008°30'1 0.8
2015-Feb-22 10:33N 44°18' E 008°29'1 0.3
2015-Feb-22 08:33N 44°19' E 008°30'3 2.9
2015-Feb-22 07:33N 44°16' E 008°28'3 3.4
2015-Feb-22 06:33N 44°19' E 008°30'1 0.9
2015-Feb-22 05:33N 44°18' E 008°29'0 0.0
2015-Feb-22 04:33N 44°18' E 008°29'0 0.0
2015-Feb-22 03:33N 44°18' E 008°29'0 0.0
2015-Feb-22 02:33N 44°18' E 008°29'  

Dump ship's entire track history